sensor_id;sensor_type;location;lat;lon;timestamp;pressure;altitude;pressure_sealevel;temperature;humidity
37832;BME280;23671;38.090;-122.570;2022-08-19T00:01:27;101195.06;;;31.67;33.16
37832;BME280;23671;38.090;-122.570;2022-08-19T00:04:00;101188.47;;;31.63;32.38
37832;BME280;23671;38.090;-122.570;2022-08-19T00:06:28;101188.78;;;31.50;32.30
37832;BME280;23671;38.090;-122.570;2022-08-19T00:08:56;101194.53;;;31.37;32.10
37832;BME280;23671;38.090;-122.570;2022-08-19T00:11:24;101182.13;;;31.29;32.63
37832;BME280;23671;38.090;-122.570;2022-08-19T00:13:55;101189.00;;;31.31;32.98
37832;BME280;23671;38.090;-122.570;2022-08-19T00:16:24;101192.06;;;31.35;33.21
37832;BME280;23671;38.090;-122.570;2022-08-19T00:18:51;101184.94;;;31.34;33.06
37832;BME280;23671;38.090;-122.570;2022-08-19T00:21:19;101183.50;;;31.15;32.27
37832;BME280;23671;38.090;-122.570;2022-08-19T00:23:46;101182.44;;;31.16;32.65
37832;BME280;23671;38.090;-122.570;2022-08-19T00:26:14;101185.06;;;31.11;33.06
37832;BME280;23671;38.090;-122.570;2022-08-19T00:28:41;101191.09;;;31.13;32.95
37832;BME280;23671;38.090;-122.570;2022-08-19T00:31:09;101204.06;;;31.06;32.72
37832;BME280;23671;38.090;-122.570;2022-08-19T00:33:36;101207.56;;;30.90;32.74
37832;BME280;23671;38.090;-122.570;2022-08-19T00:36:05;101198.81;;;30.76;32.90
37832;BME280;23671;38.090;-122.570;2022-08-19T00:38:35;101182.78;;;30.80;33.18
37832;BME280;23671;38.090;-122.570;2022-08-19T00:41:02;101189.56;;;30.77;32.95
37832;BME280;23671;38.090;-122.570;2022-08-19T00:43:29;101193.50;;;30.70;32.93
37832;BME280;23671;38.090;-122.570;2022-08-19T00:45:56;101191.88;;;30.57;33.19
37832;BME280;23671;38.090;-122.570;2022-08-19T00:51:50;101192.16;;;30.32;33.02
37832;BME280;23671;38.090;-122.570;2022-08-19T00:54:21;101183.97;;;30.21;33.08
37832;BME280;23671;38.090;-122.570;2022-08-19T00:56:49;101178.03;;;30.12;33.05
37832;BME280;23671;38.090;-122.570;2022-08-19T00:59:18;101192.84;;;30.05;33.00
37832;BME280;23671;38.090;-122.570;2022-08-19T01:01:46;101188.13;;;30.00;33.44
37832;BME280;23671;38.090;-122.570;2022-08-19T01:04:13;101176.16;;;29.90;33.44
37832;BME280;23671;38.090;-122.570;2022-08-19T01:06:41;101183.63;;;29.83;33.50
37832;BME280;23671;38.090;-122.570;2022-08-19T01:09:09;101180.16;;;29.76;33.50
37832;BME280;23671;38.090;-122.570;2022-08-19T01:11:41;101181.56;;;29.67;33.16
37832;BME280;23671;38.090;-122.570;2022-08-19T01:14:11;101174.91;;;29.63;33.21
37832;BME280;23671;38.090;-122.570;2022-08-19T01:16:40;101174.91;;;29.51;33.56
37832;BME280;23671;38.090;-122.570;2022-08-19T01:19:24;101183.56;;;29.48;33.66
37832;BME280;23671;38.090;-122.570;2022-08-19T01:24:39;101158.78;;;29.26;33.84
37832;BME280;23671;38.090;-122.570;2022-08-19T01:27:07;101163.69;;;29.18;33.67
37832;BME280;23671;38.090;-122.570;2022-08-19T01:29:38;101158.78;;;29.08;33.79
37832;BME280;23671;38.090;-122.570;2022-08-19T01:32:07;101157.00;;;29.02;33.74
37832;BME280;23671;38.090;-122.570;2022-08-19T01:34:36;101168.81;;;28.96;33.75
37832;BME280;23671;38.090;-122.570;2022-08-19T01:37:10;101178.69;;;28.91;33.49
37832;BME280;23671;38.090;-122.570;2022-08-19T01:39:39;101174.56;;;28.88;33.86
37832;BME280;23671;38.090;-122.570;2022-08-19T01:42:08;101168.16;;;28.83;33.56
37832;BME280;23671;38.090;-122.570;2022-08-19T01:44:39;101171.09;;;28.81;33.64
37832;BME280;23671;38.090;-122.570;2022-08-19T01:47:08;101168.38;;;28.81;34.07
37832;BME280;23671;38.090;-122.570;2022-08-19T01:49:36;101161.97;;;28.76;33.89
37832;BME280;23671;38.090;-122.570;2022-08-19T01:52:04;101164.19;;;28.67;33.88
37832;BME280;23671;38.090;-122.570;2022-08-19T01:54:32;101168.66;;;28.61;33.62
37832;BME280;23671;38.090;-122.570;2022-08-19T01:57:08;101170.97;;;28.58;34.31
37832;BME280;23671;38.090;-122.570;2022-08-19T01:59:36;101171.22;;;28.56;33.90
37832;BME280;23671;38.090;-122.570;2022-08-19T02:02:05;101160.56;;;28.55;33.84
37832;BME280;23671;38.090;-122.570;2022-08-19T02:04:35;101156.63;;;28.51;34.32
37832;BME280;23671;38.090;-122.570;2022-08-19T02:07:04;101156.47;;;28.46;34.07
37832;BME280;23671;38.090;-122.570;2022-08-19T02:09:32;101158.22;;;28.40;34.08
37832;BME280;23671;38.090;-122.570;2022-08-19T02:11:59;101153.47;;;28.36;33.88
37832;BME280;23671;38.090;-122.570;2022-08-19T02:14:26;101154.59;;;28.28;33.91
37832;BME280;23671;38.090;-122.570;2022-08-19T02:16:53;101162.97;;;28.27;34.27
37832;BME280;23671;38.090;-122.570;2022-08-19T02:19:20;101163.09;;;28.14;33.84
37832;BME280;23671;38.090;-122.570;2022-08-19T02:21:47;101169.00;;;28.11;34.08
37832;BME280;23671;38.090;-122.570;2022-08-19T02:24:15;101161.00;;;27.98;33.96
37832;BME280;23671;38.090;-122.570;2022-08-19T02:26:42;101155.78;;;27.96;34.13
37832;BME280;23671;38.090;-122.570;2022-08-19T02:29:09;101151.81;;;27.92;34.26
37832;BME280;23671;38.090;-122.570;2022-08-19T02:31:36;101150.81;;;27.86;34.06
37832;BME280;23671;38.090;-122.570;2022-08-19T02:34:03;101160.47;;;27.82;34.12
37832;BME280;23671;38.090;-122.570;2022-08-19T02:36:30;101160.56;;;27.69;34.20
37832;BME280;23671;38.090;-122.570;2022-08-19T02:38:57;101166.50;;;27.60;34.39
37832;BME280;23671;38.090;-122.570;2022-08-19T02:41:29;101157.22;;;27.49;34.24
37832;BME280;23671;38.090;-122.570;2022-08-19T02:43:58;101153.72;;;27.42;34.35
37832;BME280;23671;38.090;-122.570;2022-08-19T02:46:29;101158.81;;;27.32;34.47
37832;BME280;23671;38.090;-122.570;2022-08-19T02:48:59;101157.38;;;27.23;34.58
37832;BME280;23671;38.090;-122.570;2022-08-19T02:51:32;101153.66;;;27.18;34.53
37832;BME280;23671;38.090;-122.570;2022-08-19T02:53:59;101158.69;;;27.14;35.00
37832;BME280;23671;38.090;-122.570;2022-08-19T02:56:27;101166.84;;;27.08;34.96
37832;BME280;23671;38.090;-122.570;2022-08-19T02:58:57;101159.16;;;27.05;34.97
37832;BME280;23671;38.090;-122.570;2022-08-19T03:01:28;101157.56;;;26.97;35.08
37832;BME280;23671;38.090;-122.570;2022-08-19T03:03:57;101165.91;;;26.95;34.77
37832;BME280;23671;38.090;-122.570;2022-08-19T03:06:25;101169.03;;;26.92;34.99
37832;BME280;23671;38.090;-122.570;2022-08-19T03:08:52;101170.72;;;26.87;34.67
37832;BME280;23671;38.090;-122.570;2022-08-19T03:11:28;101170.34;;;26.83;35.01
37832;BME280;23671;38.090;-122.570;2022-08-19T03:13:57;101180.38;;;26.76;35.05
37832;BME280;23671;38.090;-122.570;2022-08-19T03:16:27;101178.69;;;26.69;34.99
37832;BME280;23671;38.090;-122.570;2022-08-19T03:18:57;101188.94;;;26.67;34.12
37832;BME280;23671;38.090;-122.570;2022-08-19T03:21:32;101195.41;;;26.59;34.04
37832;BME280;23671;38.090;-122.570;2022-08-19T03:24:01;101194.63;;;26.52;33.80
37832;BME280;23671;38.090;-122.570;2022-08-19T03:26:29;101187.75;;;26.50;33.99
37832;BME280;23671;38.090;-122.570;2022-08-19T03:28:56;101199.63;;;26.42;33.92
37832;BME280;23671;38.090;-122.570;2022-08-19T03:31:25;101197.59;;;26.38;33.96
37832;BME280;23671;38.090;-122.570;2022-08-19T03:33:53;101195.31;;;26.28;34.11
37832;BME280;23671;38.090;-122.570;2022-08-19T03:36:22;101196.38;;;26.21;34.32
37832;BME280;23671;38.090;-122.570;2022-08-19T03:38:53;101192.00;;;26.13;34.26
37832;BME280;23671;38.090;-122.570;2022-08-19T03:41:29;101197.00;;;26.09;34.44
37832;BME280;23671;38.090;-122.570;2022-08-19T03:43:57;101185.97;;;26.04;34.53
37832;BME280;23671;38.090;-122.570;2022-08-19T03:46:27;101189.28;;;26.00;34.48
37832;BME280;23671;38.090;-122.570;2022-08-19T03:48:57;101190.56;;;25.91;34.39
37832;BME280;23671;38.090;-122.570;2022-08-19T03:51:30;101192.00;;;25.87;34.33
37832;BME280;23671;38.090;-122.570;2022-08-19T03:54:00;101201.38;;;25.84;34.61
37832;BME280;23671;38.090;-122.570;2022-08-19T03:56:28;101198.06;;;25.76;34.86
37832;BME280;23671;38.090;-122.570;2022-08-19T03:58:57;101203.69;;;25.74;34.63
37832;BME280;23671;38.090;-122.570;2022-08-19T04:01:27;101203.88;;;25.66;35.07
37832;BME280;23671;38.090;-122.570;2022-08-19T04:03:57;101200.13;;;25.54;35.10
37832;BME280;23671;38.090;-122.570;2022-08-19T04:06:27;101207.19;;;25.49;34.93
37832;BME280;23671;38.090;-122.570;2022-08-19T04:08:56;101206.56;;;25.40;35.03
37832;BME280;23671;38.090;-122.570;2022-08-19T04:11:26;101206.72;;;25.32;35.07
37832;BME280;23671;38.090;-122.570;2022-08-19T04:13:54;101211.91;;;25.27;35.23
37832;BME280;23671;38.090;-122.570;2022-08-19T04:16:25;101207.94;;;25.23;35.04
37832;BME280;23671;38.090;-122.570;2022-08-19T04:18:59;101211.88;;;25.14;35.23
37832;BME280;23671;38.090;-122.570;2022-08-19T04:21:27;101215.41;;;25.08;35.50
37832;BME280;23671;38.090;-122.570;2022-08-19T04:23:55;101222.66;;;25.01;35.52
37832;BME280;23671;38.090;-122.570;2022-08-19T04:26:29;101221.41;;;24.97;35.57
37832;BME280;23671;38.090;-122.570;2022-08-19T04:29:00;101217.81;;;24.90;35.55
37832;BME280;23671;38.090;-122.570;2022-08-19T04:31:31;101224.03;;;24.84;35.63
37832;BME280;23671;38.090;-122.570;2022-08-19T04:34:03;101225.03;;;24.76;35.42
37832;BME280;23671;38.090;-122.570;2022-08-19T04:36:33;101221.66;;;24.68;35.55
37832;BME280;23671;38.090;-122.570;2022-08-19T04:39:06;101222.47;;;24.62;35.78
37832;BME280;23671;38.090;-122.570;2022-08-19T04:41:34;101218.91;;;24.55;35.80
37832;BME280;23671;38.090;-122.570;2022-08-19T04:44:20;101221.97;;;24.52;35.86
37832;BME280;23671;38.090;-122.570;2022-08-19T04:46:49;101221.13;;;24.45;35.82
37832;BME280;23671;38.090;-122.570;2022-08-19T04:49:19;101216.72;;;24.37;36.09
37832;BME280;23671;38.090;-122.570;2022-08-19T04:51:48;101220.41;;;24.29;36.13
37832;BME280;23671;38.090;-122.570;2022-08-19T04:54:17;101213.75;;;24.25;35.99
37832;BME280;23671;38.090;-122.570;2022-08-19T04:56:52;101209.13;;;24.19;36.46
37832;BME280;23671;38.090;-122.570;2022-08-19T04:59:20;101211.78;;;24.13;36.20
37832;BME280;23671;38.090;-122.570;2022-08-19T05:01:48;101209.28;;;24.11;36.33
37832;BME280;23671;38.090;-122.570;2022-08-19T05:04:18;101205.88;;;24.03;36.22
37832;BME280;23671;38.090;-122.570;2022-08-19T05:06:47;101206.47;;;23.98;36.42
37832;BME280;23671;38.090;-122.570;2022-08-19T05:12:37;101214.47;;;23.85;36.45
37832;BME280;23671;38.090;-122.570;2022-08-19T05:15:06;101199.88;;;23.80;36.52
37832;BME280;23671;38.090;-122.570;2022-08-19T05:17:35;101202.53;;;23.73;36.65
37832;BME280;23671;38.090;-122.570;2022-08-19T05:20:04;101199.56;;;23.68;36.53
37832;BME280;23671;38.090;-122.570;2022-08-19T05:22:49;101192.28;;;23.62;36.77
37832;BME280;23671;38.090;-122.570;2022-08-19T05:25:19;101199.72;;;23.60;36.76
37832;BME280;23671;38.090;-122.570;2022-08-19T05:27:47;101202.34;;;23.54;36.80
37832;BME280;23671;38.090;-122.570;2022-08-19T05:30:14;101201.06;;;23.50;36.88
37832;BME280;23671;38.090;-122.570;2022-08-19T05:32:43;101201.84;;;23.43;36.90
37832;BME280;23671;38.090;-122.570;2022-08-19T05:35:10;101193.31;;;23.40;37.00
37832;BME280;23671;38.090;-122.570;2022-08-19T05:37:38;101193.06;;;23.35;37.03
37832;BME280;23671;38.090;-122.570;2022-08-19T05:40:07;101194.47;;;23.31;36.94
37832;BME280;23671;38.090;-122.570;2022-08-19T05:42:34;101187.13;;;23.25;37.08
37832;BME280;23671;38.090;-122.570;2022-08-19T05:45:01;101183.13;;;23.21;37.08
37832;BME280;23671;38.090;-122.570;2022-08-19T05:47:28;101186.59;;;23.15;37.22
37832;BME280;23671;38.090;-122.570;2022-08-19T05:49:55;101186.97;;;23.12;37.04
37832;BME280;23671;38.090;-122.570;2022-08-19T05:52:22;101181.50;;;23.05;37.20
37832;BME280;23671;38.090;-122.570;2022-08-19T05:54:49;101171.94;;;23.03;37.26
37832;BME280;23671;38.090;-122.570;2022-08-19T05:57:18;101170.00;;;22.97;37.28
37832;BME280;23671;38.090;-122.570;2022-08-19T05:59:46;101179.31;;;22.94;37.30
37832;BME280;23671;38.090;-122.570;2022-08-19T06:02:14;101172.66;;;22.90;37.38
37832;BME280;23671;38.090;-122.570;2022-08-19T06:04:41;101182.97;;;22.87;37.36
37832;BME280;23671;38.090;-122.570;2022-08-19T06:07:09;101183.53;;;22.82;37.37
37832;BME280;23671;38.090;-122.570;2022-08-19T06:09:36;101175.34;;;22.76;37.49
37832;BME280;23671;38.090;-122.570;2022-08-19T06:12:03;101180.28;;;22.72;37.50
37832;BME280;23671;38.090;-122.570;2022-08-19T06:14:33;101173.63;;;22.68;37.64
37832;BME280;23671;38.090;-122.570;2022-08-19T06:17:01;101177.69;;;22.64;37.52
37832;BME280;23671;38.090;-122.570;2022-08-19T06:19:29;101181.44;;;22.63;37.67
37832;BME280;23671;38.090;-122.570;2022-08-19T06:21:58;101174.94;;;22.58;37.73
37832;BME280;23671;38.090;-122.570;2022-08-19T06:24:27;101177.31;;;22.52;37.78
37832;BME280;23671;38.090;-122.570;2022-08-19T06:29:23;101177.78;;;22.41;37.73
37832;BME280;23671;38.090;-122.570;2022-08-19T06:31:53;101181.69;;;22.39;37.79
37832;BME280;23671;38.090;-122.570;2022-08-19T06:34:20;101188.66;;;22.33;37.81
37832;BME280;23671;38.090;-122.570;2022-08-19T06:36:49;101185.16;;;22.33;37.78
37832;BME280;23671;38.090;-122.570;2022-08-19T06:39:23;101180.13;;;22.30;37.94
37832;BME280;23671;38.090;-122.570;2022-08-19T06:41:53;101189.78;;;22.24;37.97
37832;BME280;23671;38.090;-122.570;2022-08-19T06:44:24;101185.59;;;22.22;37.90
37832;BME280;23671;38.090;-122.570;2022-08-19T06:46:55;101180.78;;;22.17;37.87
37832;BME280;23671;38.090;-122.570;2022-08-19T06:49:23;101175.75;;;22.14;37.87
37832;BME280;23671;38.090;-122.570;2022-08-19T06:51:51;101178.84;;;22.11;37.89
37832;BME280;23671;38.090;-122.570;2022-08-19T06:54:19;101180.56;;;22.04;38.13
37832;BME280;23671;38.090;-122.570;2022-08-19T06:56:47;101179.25;;;22.00;38.16
37832;BME280;23671;38.090;-122.570;2022-08-19T06:59:18;101181.69;;;21.95;38.11
37832;BME280;23671;38.090;-122.570;2022-08-19T07:01:50;101181.22;;;21.92;38.11
37832;BME280;23671;38.090;-122.570;2022-08-19T07:04:23;101172.03;;;21.86;38.26
37832;BME280;23671;38.090;-122.570;2022-08-19T07:06:57;101173.41;;;21.82;38.30
37832;BME280;23671;38.090;-122.570;2022-08-19T07:09:25;101174.41;;;21.81;38.25
37832;BME280;23671;38.090;-122.570;2022-08-19T07:11:54;101180.97;;;21.79;38.10
37832;BME280;23671;38.090;-122.570;2022-08-19T07:14:22;101177.84;;;21.75;38.17
37832;BME280;23671;38.090;-122.570;2022-08-19T07:16:54;101173.25;;;21.76;38.01
37832;BME280;23671;38.090;-122.570;2022-08-19T07:19:22;101175.38;;;21.65;38.28
37832;BME280;23671;38.090;-122.570;2022-08-19T07:21:51;101171.50;;;21.68;38.06
37832;BME280;23671;38.090;-122.570;2022-08-19T07:24:24;101178.63;;;21.61;38.31
37832;BME280;23671;38.090;-122.570;2022-08-19T07:26:54;101177.97;;;21.59;38.26
37832;BME280;23671;38.090;-122.570;2022-08-19T07:29:23;101178.50;;;21.54;38.23
37832;BME280;23671;38.090;-122.570;2022-08-19T07:31:53;101184.25;;;21.51;38.42
37832;BME280;23671;38.090;-122.570;2022-08-19T07:34:23;101185.09;;;21.52;38.21
37832;BME280;23671;38.090;-122.570;2022-08-19T07:36:51;101186.28;;;21.49;38.20
37832;BME280;23671;38.090;-122.570;2022-08-19T07:39:25;101186.47;;;21.48;38.12
37832;BME280;23671;38.090;-122.570;2022-08-19T07:41:53;101186.63;;;21.46;38.21
37832;BME280;23671;38.090;-122.570;2022-08-19T07:44:20;101179.78;;;21.44;38.21
37832;BME280;23671;38.090;-122.570;2022-08-19T07:46:51;101172.25;;;21.39;38.09
37832;BME280;23671;38.090;-122.570;2022-08-19T07:49:18;101173.94;;;21.40;38.15
37832;BME280;23671;38.090;-122.570;2022-08-19T07:52:09;101173.16;;;21.32;38.23
37832;BME280;23671;38.090;-122.570;2022-08-19T07:54:35;101172.31;;;21.31;38.21
37832;BME280;23671;38.090;-122.570;2022-08-19T07:57:03;101173.16;;;21.32;38.17
37832;BME280;23671;38.090;-122.570;2022-08-19T07:59:31;101173.53;;;21.29;38.07
37832;BME280;23671;38.090;-122.570;2022-08-19T08:01:58;101171.47;;;21.31;37.95
37832;BME280;23671;38.090;-122.570;2022-08-19T08:04:28;101163.84;;;21.20;38.28
37832;BME280;23671;38.090;-122.570;2022-08-19T08:07:13;101166.19;;;21.23;38.20
37832;BME280;23671;38.090;-122.570;2022-08-19T08:09:59;101161.13;;;21.20;38.05
37832;BME280;23671;38.090;-122.570;2022-08-19T08:12:37;101160.47;;;21.18;38.10
37832;BME280;23671;38.090;-122.570;2022-08-19T08:15:10;101157.00;;;21.17;38.05
37832;BME280;23671;38.090;-122.570;2022-08-19T08:17:38;101151.28;;;21.12;38.09
37832;BME280;23671;38.090;-122.570;2022-08-19T08:20:06;101143.44;;;21.11;38.23
37832;BME280;23671;38.090;-122.570;2022-08-19T08:22:34;101145.47;;;21.09;38.06
37832;BME280;23671;38.090;-122.570;2022-08-19T08:25:22;101150.69;;;21.02;38.12
37832;BME280;23671;38.090;-122.570;2022-08-19T08:27:50;101141.13;;;21.00;38.19
37832;BME280;23671;38.090;-122.570;2022-08-19T08:30:23;101136.47;;;20.94;38.37
37832;BME280;23671;38.090;-122.570;2022-08-19T08:32:51;101141.47;;;20.97;38.05
37832;BME280;23671;38.090;-122.570;2022-08-19T08:35:20;101139.50;;;20.91;38.23
37832;BME280;23671;38.090;-122.570;2022-08-19T08:37:50;101140.53;;;20.90;38.15
37832;BME280;23671;38.090;-122.570;2022-08-19T08:43:03;101136.22;;;20.80;38.30
37832;BME280;23671;38.090;-122.570;2022-08-19T08:45:36;101134.19;;;20.83;38.24
37832;BME280;23671;38.090;-122.570;2022-08-19T08:48:52;101144.31;;;20.72;38.39
37832;BME280;23671;38.090;-122.570;2022-08-19T08:50:59;101141.44;;;20.74;38.22
37832;BME280;23671;38.090;-122.570;2022-08-19T08:53:28;101140.97;;;20.70;38.25
37832;BME280;23671;38.090;-122.570;2022-08-19T08:55:56;101142.63;;;20.71;38.34
37832;BME280;23671;38.090;-122.570;2022-08-19T08:58:42;101142.66;;;20.63;38.46
37832;BME280;23671;38.090;-122.570;2022-08-19T09:01:12;101132.66;;;20.57;38.42
37832;BME280;23671;38.090;-122.570;2022-08-19T09:03:41;101136.53;;;20.55;38.34
37832;BME280;23671;38.090;-122.570;2022-08-19T09:09:32;101122.97;;;20.48;38.39
37832;BME280;23671;38.090;-122.570;2022-08-19T09:12:31;101124.50;;;20.43;38.58
37832;BME280;23671;38.090;-122.570;2022-08-19T09:15:10;101123.19;;;20.39;38.49
37832;BME280;23671;38.090;-122.570;2022-08-19T09:17:39;101115.50;;;20.36;38.58
37832;BME280;23671;38.090;-122.570;2022-08-19T09:22:39;101121.38;;;20.31;38.74
37832;BME280;23671;38.090;-122.570;2022-08-19T09:25:08;101124.25;;;20.30;38.59
37832;BME280;23671;38.090;-122.570;2022-08-19T09:27:37;101121.22;;;20.25;38.84
37832;BME280;23671;38.090;-122.570;2022-08-19T09:30:06;101123.09;;;20.24;38.59
37832;BME280;23671;38.090;-122.570;2022-08-19T09:32:34;101124.25;;;20.22;38.78
37832;BME280;23671;38.090;-122.570;2022-08-19T09:35:01;101116.69;;;20.17;38.59
37832;BME280;23671;38.090;-122.570;2022-08-19T09:37:28;101110.00;;;20.13;38.85
37832;BME280;23671;38.090;-122.570;2022-08-19T09:39:56;101115.38;;;20.13;38.67
37832;BME280;23671;38.090;-122.570;2022-08-19T09:42:23;101106.69;;;20.11;38.78
37832;BME280;23671;38.090;-122.570;2022-08-19T09:44:50;101113.72;;;20.04;38.97
37832;BME280;23671;38.090;-122.570;2022-08-19T09:47:17;101106.88;;;20.02;38.89
37832;BME280;23671;38.090;-122.570;2022-08-19T09:49:44;101107.03;;;20.00;38.83
37832;BME280;23671;38.090;-122.570;2022-08-19T09:52:11;101108.56;;;19.94;38.99
37832;BME280;23671;38.090;-122.570;2022-08-19T09:54:39;101113.94;;;19.94;38.95
37832;BME280;23671;38.090;-122.570;2022-08-19T09:57:06;101116.78;;;19.93;39.00
37832;BME280;23671;38.090;-122.570;2022-08-19T09:59:33;101115.47;;;19.89;38.87
37832;BME280;23671;38.090;-122.570;2022-08-19T10:02:00;101099.72;;;19.86;38.89
37832;BME280;23671;38.090;-122.570;2022-08-19T10:04:27;101108.75;;;19.85;39.04
37832;BME280;23671;38.090;-122.570;2022-08-19T10:07:14;101108.94;;;19.83;38.85
37832;BME280;23671;38.090;-122.570;2022-08-19T10:09:42;101105.41;;;19.83;38.75
37832;BME280;23671;38.090;-122.570;2022-08-19T10:12:09;101106.09;;;19.77;38.89
37832;BME280;23671;38.090;-122.570;2022-08-19T10:14:37;101104.63;;;19.74;38.83
37832;BME280;23671;38.090;-122.570;2022-08-19T10:17:05;101105.78;;;19.72;39.00
37832;BME280;23671;38.090;-122.570;2022-08-19T10:19:32;101104.09;;;19.71;38.96
37832;BME280;23671;38.090;-122.570;2022-08-19T10:22:06;101104.63;;;19.66;39.10
37832;BME280;23671;38.090;-122.570;2022-08-19T10:24:34;101103.47;;;19.61;38.98
37832;BME280;23671;38.090;-122.570;2022-08-19T10:27:02;101098.25;;;19.59;39.08
37832;BME280;23671;38.090;-122.570;2022-08-19T10:29:33;101097.09;;;19.54;39.05
37832;BME280;23671;38.090;-122.570;2022-08-19T10:32:05;101092.59;;;19.54;39.03
37832;BME280;23671;38.090;-122.570;2022-08-19T10:34:35;101103.47;;;19.53;39.05
37832;BME280;23671;38.090;-122.570;2022-08-19T10:37:04;101107.50;;;19.49;39.13
37832;BME280;23671;38.090;-122.570;2022-08-19T10:39:33;101102.31;;;19.47;39.06
37832;BME280;23671;38.090;-122.570;2022-08-19T10:42:04;101105.16;;;19.46;38.81
37832;BME280;23671;38.090;-122.570;2022-08-19T10:44:32;101100.81;;;19.37;39.44
37832;BME280;23671;38.090;-122.570;2022-08-19T10:47:02;101099.81;;;19.38;39.39
37832;BME280;23671;38.090;-122.570;2022-08-19T10:49:30;101094.47;;;19.38;38.97
37832;BME280;23671;38.090;-122.570;2022-08-19T10:51:58;101090.44;;;19.34;39.20
37832;BME280;23671;38.090;-122.570;2022-08-19T10:54:43;101095.41;;;19.29;39.19
37832;BME280;23671;38.090;-122.570;2022-08-19T10:57:48;101088.59;;;19.26;39.32
37832;BME280;23671;38.090;-122.570;2022-08-19T11:00:15;101086.41;;;19.22;39.39
37832;BME280;23671;38.090;-122.570;2022-08-19T11:02:42;101094.91;;;19.17;39.38
37832;BME280;23671;38.090;-122.570;2022-08-19T11:05:10;101096.13;;;19.15;39.59
37832;BME280;23671;38.090;-122.570;2022-08-19T11:07:41;101096.44;;;19.12;39.41
37832;BME280;23671;38.090;-122.570;2022-08-19T11:10:11;101092.78;;;19.13;39.48
37832;BME280;23671;38.090;-122.570;2022-08-19T11:12:38;101096.78;;;19.09;39.59
37832;BME280;23671;38.090;-122.570;2022-08-19T11:15:09;101094.59;;;19.04;39.42
37832;BME280;23671;38.090;-122.570;2022-08-19T11:17:40;101095.75;;;19.01;39.59
37832;BME280;23671;38.090;-122.570;2022-08-19T11:20:08;101094.94;;;19.01;39.45
37832;BME280;23671;38.090;-122.570;2022-08-19T11:22:35;101093.25;;;19.00;39.33
37832;BME280;23671;38.090;-122.570;2022-08-19T11:25:03;101089.06;;;18.89;39.72
37832;BME280;23671;38.090;-122.570;2022-08-19T11:27:30;101100.59;;;18.90;39.53
37832;BME280;23671;38.090;-122.570;2022-08-19T11:29:57;101099.91;;;18.88;39.58
37832;BME280;23671;38.090;-122.570;2022-08-19T11:32:24;101102.28;;;18.83;39.73
37832;BME280;23671;38.090;-122.570;2022-08-19T11:34:51;101103.44;;;18.80;39.78
37832;BME280;23671;38.090;-122.570;2022-08-19T11:37:18;101100.75;;;18.80;39.64
37832;BME280;23671;38.090;-122.570;2022-08-19T11:39:45;101102.44;;;18.81;39.64
37832;BME280;23671;38.090;-122.570;2022-08-19T11:42:12;101100.41;;;18.75;39.75
37832;BME280;23671;38.090;-122.570;2022-08-19T11:44:57;101096.41;;;18.71;39.87
37832;BME280;23671;38.090;-122.570;2022-08-19T11:47:24;101097.56;;;18.69;39.80
37832;BME280;23671;38.090;-122.570;2022-08-19T11:49:52;101092.19;;;18.69;39.71
37832;BME280;23671;38.090;-122.570;2022-08-19T11:52:19;101086.19;;;18.67;39.60
37832;BME280;23671;38.090;-122.570;2022-08-19T11:54:46;101094.53;;;18.64;39.74
37832;BME280;23671;38.090;-122.570;2022-08-19T11:57:13;101089.50;;;18.61;39.61
37832;BME280;23671;38.090;-122.570;2022-08-19T11:59:47;101097.88;;;18.58;39.85
37832;BME280;23671;38.090;-122.570;2022-08-19T12:02:15;101098.03;;;18.56;39.87
37832;BME280;23671;38.090;-122.570;2022-08-19T12:04:42;101095.66;;;18.53;39.69
37832;BME280;23671;38.090;-122.570;2022-08-19T12:07:09;101091.16;;;18.54;40.05
37832;BME280;23671;38.090;-122.570;2022-08-19T12:09:36;101093.50;;;18.49;39.90
37832;BME280;23671;38.090;-122.570;2022-08-19T12:12:06;101087.31;;;18.48;39.95
37832;BME280;23671;38.090;-122.570;2022-08-19T12:14:33;101093.81;;;18.46;39.87
37832;BME280;23671;38.090;-122.570;2022-08-19T12:17:00;101094.66;;;18.46;39.82
37832;BME280;23671;38.090;-122.570;2022-08-19T12:19:28;101094.16;;;18.43;39.86
37832;BME280;23671;38.090;-122.570;2022-08-19T12:22:00;101088.25;;;18.39;40.27
37832;BME280;23671;38.090;-122.570;2022-08-19T12:24:31;101088.25;;;18.39;40.24
37832;BME280;23671;38.090;-122.570;2022-08-19T12:26:59;101090.56;;;18.34;40.28
37832;BME280;23671;38.090;-122.570;2022-08-19T12:29:27;101084.25;;;18.35;40.38
37832;BME280;23671;38.090;-122.570;2022-08-19T12:31:56;101091.59;;;18.33;40.25
37832;BME280;23671;38.090;-122.570;2022-08-19T12:34:29;101092.44;;;18.34;40.41
37832;BME280;23671;38.090;-122.570;2022-08-19T12:36:58;101094.09;;;18.35;40.49
37832;BME280;23671;38.090;-122.570;2022-08-19T12:39:25;101087.56;;;18.29;40.77
37832;BME280;23671;38.090;-122.570;2022-08-19T12:41:53;101084.53;;;18.32;40.37
37832;BME280;23671;38.090;-122.570;2022-08-19T12:44:20;101088.41;;;18.30;40.62
37832;BME280;23671;38.090;-122.570;2022-08-19T12:46:47;101090.41;;;18.28;40.50
37832;BME280;23671;38.090;-122.570;2022-08-19T12:49:15;101103.09;;;18.26;40.84
37832;BME280;23671;38.090;-122.570;2022-08-19T12:51:42;101096.91;;;18.25;40.66
37832;BME280;23671;38.090;-122.570;2022-08-19T12:54:09;101095.53;;;18.21;40.78